sensor_id;sensor_type;location;lat;lon;timestamp;P1;durP1;ratioP1;P2;durP2;ratioP2
85603;SDS011;76031;53.256;5.762;2024-03-07T00:02:07;35.72;;;16.17;;
85603;SDS011;76031;53.256;5.762;2024-03-07T00:04:33;37.22;;;18.95;;
85603;SDS011;76031;53.256;5.762;2024-03-07T00:06:58;33.13;;;17.50;;
85603;SDS011;76031;53.256;5.762;2024-03-07T00:09:23;35.10;;;18.83;;
85603;SDS011;76031;53.256;5.762;2024-03-07T00:11:49;40.58;;;17.80;;
85603;SDS011;76031;53.256;5.762;2024-03-07T00:14:15;42.38;;;20.23;;
85603;SDS011;76031;53.256;5.762;2024-03-07T00:16:40;39.27;;;19.90;;
85603;SDS011;76031;53.256;5.762;2024-03-07T00:19:06;44.30;;;20.10;;
85603;SDS011;76031;53.256;5.762;2024-03-07T00:21:31;36.17;;;17.60;;
85603;SDS011;76031;53.256;5.762;2024-03-07T00:23:57;39.75;;;18.23;;
85603;SDS011;76031;53.256;5.762;2024-03-07T00:26:22;43.53;;;21.15;;
85603;SDS011;76031;53.256;5.762;2024-03-07T00:28:47;42.30;;;21.10;;
85603;SDS011;76031;53.256;5.762;2024-03-07T00:31:13;42.03;;;19.55;;
85603;SDS011;76031;53.256;5.762;2024-03-07T00:33:38;41.25;;;20.25;;
85603;SDS011;76031;53.256;5.762;2024-03-07T00:36:04;39.53;;;18.27;;
85603;SDS011;76031;53.256;5.762;2024-03-07T00:38:29;46.35;;;19.55;;
85603;SDS011;76031;53.256;5.762;2024-03-07T00:40:54;39.87;;;18.77;;
85603;SDS011;76031;53.256;5.762;2024-03-07T00:43:20;43.80;;;21.57;;
85603;SDS011;76031;53.256;5.762;2024-03-07T00:45:45;48.70;;;22.80;;
85603;SDS011;76031;53.256;5.762;2024-03-07T00:48:14;45.35;;;19.77;;
85603;SDS011;76031;53.256;5.762;2024-03-07T00:50:40;44.25;;;23.58;;
85603;SDS011;76031;53.256;5.762;2024-03-07T00:53:07;39.88;;;20.63;;
85603;SDS011;76031;53.256;5.762;2024-03-07T00:55:32;42.93;;;21.67;;
85603;SDS011;76031;53.256;5.762;2024-03-07T00:57:58;44.10;;;20.87;;
85603;SDS011;76031;53.256;5.762;2024-03-07T01:00:23;44.83;;;20.85;;
85603;SDS011;76031;53.256;5.762;2024-03-07T01:02:49;40.40;;;19.00;;
85603;SDS011;76031;53.256;5.762;2024-03-07T01:05:14;42.72;;;22.55;;
85603;SDS011;76031;53.256;5.762;2024-03-07T01:07:40;40.88;;;18.55;;
85603;SDS011;76031;53.256;5.762;2024-03-07T01:10:09;42.58;;;19.80;;
85603;SDS011;76031;53.256;5.762;2024-03-07T01:12:35;38.13;;;18.60;;
85603;SDS011;76031;53.256;5.762;2024-03-07T01:15:02;38.90;;;20.92;;
85603;SDS011;76031;53.256;5.762;2024-03-07T01:17:29;37.13;;;19.45;;
85603;SDS011;76031;53.256;5.762;2024-03-07T01:19:54;34.03;;;16.90;;
85603;SDS011;76031;53.256;5.762;2024-03-07T01:22:19;36.50;;;19.23;;
85603;SDS011;76031;53.256;5.762;2024-03-07T01:24:45;42.10;;;20.63;;
85603;SDS011;76031;53.256;5.762;2024-03-07T01:27:10;42.70;;;20.17;;
85603;SDS011;76031;53.256;5.762;2024-03-07T01:29:35;33.37;;;18.10;;
85603;SDS011;76031;53.256;5.762;2024-03-07T01:32:01;37.27;;;18.33;;
85603;SDS011;76031;53.256;5.762;2024-03-07T01:34:28;39.55;;;20.08;;
85603;SDS011;76031;53.256;5.762;2024-03-07T01:36:53;36.37;;;17.93;;
85603;SDS011;76031;53.256;5.762;2024-03-07T01:39:18;36.07;;;18.23;;
85603;SDS011;76031;53.256;5.762;2024-03-07T01:41:44;39.05;;;18.15;;
85603;SDS011;76031;53.256;5.762;2024-03-07T01:44:10;33.55;;;17.52;;
85603;SDS011;76031;53.256;5.762;2024-03-07T01:46:35;34.13;;;16.83;;
85603;SDS011;76031;53.256;5.762;2024-03-07T01:49:01;40.83;;;18.15;;
85603;SDS011;76031;53.256;5.762;2024-03-07T01:51:27;36.47;;;16.88;;
85603;SDS011;76031;53.256;5.762;2024-03-07T01:53:52;37.75;;;18.10;;
85603;SDS011;76031;53.256;5.762;2024-03-07T01:56:18;34.15;;;16.63;;
85603;SDS011;76031;53.256;5.762;2024-03-07T01:58:45;38.33;;;17.15;;
85603;SDS011;76031;53.256;5.762;2024-03-07T02:01:11;38.33;;;17.45;;
85603;SDS011;76031;53.256;5.762;2024-03-07T02:03:39;34.13;;;16.30;;
85603;SDS011;76031;53.256;5.762;2024-03-07T02:06:05;37.45;;;18.42;;
85603;SDS011;76031;53.256;5.762;2024-03-07T02:08:30;35.63;;;18.45;;
85603;SDS011;76031;53.256;5.762;2024-03-07T02:10:57;33.05;;;16.65;;
85603;SDS011;76031;53.256;5.762;2024-03-07T02:13:22;35.28;;;17.73;;
85603;SDS011;76031;53.256;5.762;2024-03-07T02:15:48;34.20;;;17.48;;
85603;SDS011;76031;53.256;5.762;2024-03-07T02:18:13;36.30;;;17.05;;
85603;SDS011;76031;53.256;5.762;2024-03-07T02:20:45;31.92;;;16.65;;
85603;SDS011;76031;53.256;5.762;2024-03-07T02:23:13;31.33;;;14.73;;
85603;SDS011;76031;53.256;5.762;2024-03-07T02:25:39;34.30;;;15.55;;
85603;SDS011;76031;53.256;5.762;2024-03-07T02:28:05;35.70;;;17.60;;
85603;SDS011;76031;53.256;5.762;2024-03-07T02:30:30;32.88;;;16.17;;
85603;SDS011;76031;53.256;5.762;2024-03-07T02:32:59;27.45;;;14.85;;
85603;SDS011;76031;53.256;5.762;2024-03-07T02:35:31;30.30;;;16.05;;
85603;SDS011;76031;53.256;5.762;2024-03-07T02:37:58;29.02;;;15.57;;
85603;SDS011;76031;53.256;5.762;2024-03-07T02:40:23;31.87;;;15.30;;
85603;SDS011;76031;53.256;5.762;2024-03-07T02:42:49;29.30;;;14.67;;
85603;SDS011;76031;53.256;5.762;2024-03-07T02:45:14;29.33;;;14.83;;
85603;SDS011;76031;53.256;5.762;2024-03-07T02:47:40;30.52;;;15.40;;
85603;SDS011;76031;53.256;5.762;2024-03-07T02:50:07;31.08;;;15.10;;
85603;SDS011;76031;53.256;5.762;2024-03-07T02:52:32;30.73;;;15.18;;
85603;SDS011;76031;53.256;5.762;2024-03-07T02:54:58;29.77;;;14.73;;
85603;SDS011;76031;53.256;5.762;2024-03-07T02:57:23;29.97;;;15.10;;
85603;SDS011;76031;53.256;5.762;2024-03-07T02:59:48;31.67;;;15.37;;
85603;SDS011;76031;53.256;5.762;2024-03-07T03:02:13;28.90;;;16.23;;
85603;SDS011;76031;53.256;5.762;2024-03-07T03:04:39;33.30;;;16.47;;
85603;SDS011;76031;53.256;5.762;2024-03-07T03:07:04;31.00;;;14.27;;
85603;SDS011;76031;53.256;5.762;2024-03-07T03:09:30;34.90;;;16.15;;
85603;SDS011;76031;53.256;5.762;2024-03-07T03:11:55;29.83;;;14.55;;
85603;SDS011;76031;53.256;5.762;2024-03-07T03:14:21;33.53;;;14.73;;
85603;SDS011;76031;53.256;5.762;2024-03-07T03:16:46;29.83;;;14.97;;
85603;SDS011;76031;53.256;5.762;2024-03-07T03:19:12;33.72;;;15.00;;
85603;SDS011;76031;53.256;5.762;2024-03-07T03:21:37;35.20;;;16.33;;
85603;SDS011;76031;53.256;5.762;2024-03-07T03:24:03;34.78;;;16.67;;
85603;SDS011;76031;53.256;5.762;2024-03-07T03:26:29;32.70;;;16.52;;
85603;SDS011;76031;53.256;5.762;2024-03-07T03:28:56;33.83;;;16.95;;
85603;SDS011;76031;53.256;5.762;2024-03-07T03:31:22;33.92;;;16.10;;
85603;SDS011;76031;53.256;5.762;2024-03-07T03:33:50;34.43;;;15.13;;
85603;SDS011;76031;53.256;5.762;2024-03-07T03:36:16;34.05;;;15.93;;
85603;SDS011;76031;53.256;5.762;2024-03-07T03:38:41;33.50;;;16.08;;
85603;SDS011;76031;53.256;5.762;2024-03-07T03:41:07;31.58;;;15.38;;
85603;SDS011;76031;53.256;5.762;2024-03-07T03:43:32;28.03;;;14.93;;
85603;SDS011;76031;53.256;5.762;2024-03-07T03:45:57;37.10;;;16.87;;
85603;SDS011;76031;53.256;5.762;2024-03-07T03:48:23;29.60;;;15.57;;
85603;SDS011;76031;53.256;5.762;2024-03-07T03:50:48;32.72;;;14.75;;
85603;SDS011;76031;53.256;5.762;2024-03-07T03:53:13;33.87;;;16.47;;
85603;SDS011;76031;53.256;5.762;2024-03-07T03:55:39;32.87;;;15.93;;
85603;SDS011;76031;53.256;5.762;2024-03-07T03:58:04;36.10;;;16.47;;
85603;SDS011;76031;53.256;5.762;2024-03-07T04:00:30;34.63;;;16.73;;
85603;SDS011;76031;53.256;5.762;2024-03-07T04:02:56;33.55;;;16.38;;
85603;SDS011;76031;53.256;5.762;2024-03-07T04:05:21;29.10;;;14.33;;
85603;SDS011;76031;53.256;5.762;2024-03-07T04:07:46;32.65;;;15.20;;
85603;SDS011;76031;53.256;5.762;2024-03-07T04:10:12;35.25;;;16.30;;
85603;SDS011;76031;53.256;5.762;2024-03-07T04:12:38;32.75;;;15.50;;
85603;SDS011;76031;53.256;5.762;2024-03-07T04:15:05;36.05;;;15.45;;
85603;SDS011;76031;53.256;5.762;2024-03-07T04:17:32;31.02;;;15.48;;
85603;SDS011;76031;53.256;5.762;2024-03-07T04:19:59;36.22;;;15.90;;
85603;SDS011;76031;53.256;5.762;2024-03-07T04:22:24;30.90;;;15.63;;
85603;SDS011;76031;53.256;5.762;2024-03-07T04:24:50;36.30;;;16.83;;
85603;SDS011;76031;53.256;5.762;2024-03-07T04:27:19;33.30;;;16.00;;
85603;SDS011;76031;53.256;5.762;2024-03-07T04:29:44;33.63;;;15.23;;
85603;SDS011;76031;53.256;5.762;2024-03-07T04:32:09;34.33;;;13.87;;
85603;SDS011;76031;53.256;5.762;2024-03-07T04:34:35;27.80;;;13.23;;
85603;SDS011;76031;53.256;5.762;2024-03-07T04:37:01;33.42;;;14.90;;
85603;SDS011;76031;53.256;5.762;2024-03-07T04:39:27;31.77;;;14.67;;
85603;SDS011;76031;53.256;5.762;2024-03-07T04:42:05;29.52;;;15.15;;
85603;SDS011;76031;53.256;5.762;2024-03-07T04:44:34;34.17;;;15.80;;
85603;SDS011;76031;53.256;5.762;2024-03-07T04:47:00;33.05;;;15.20;;
85603;SDS011;76031;53.256;5.762;2024-03-07T04:49:26;31.05;;;14.73;;
85603;SDS011;76031;53.256;5.762;2024-03-07T04:51:52;27.58;;;14.38;;
85603;SDS011;76031;53.256;5.762;2024-03-07T04:54:21;27.45;;;16.02;;
85603;SDS011;76031;53.256;5.762;2024-03-07T04:56:47;28.75;;;14.18;;
85603;SDS011;76031;53.256;5.762;2024-03-07T04:59:13;27.73;;;13.93;;
85603;SDS011;76031;53.256;5.762;2024-03-07T05:01:39;30.63;;;15.70;;
85603;SDS011;76031;53.256;5.762;2024-03-07T05:04:04;30.77;;;15.25;;
85603;SDS011;76031;53.256;5.762;2024-03-07T05:06:29;37.53;;;16.67;;
85603;SDS011;76031;53.256;5.762;2024-03-07T05:08:59;34.60;;;16.90;;
85603;SDS011;76031;53.256;5.762;2024-03-07T05:11:24;34.30;;;16.75;;
85603;SDS011;76031;53.256;5.762;2024-03-07T05:13:49;35.77;;;17.30;;
85603;SDS011;76031;53.256;5.762;2024-03-07T05:16:15;35.72;;;16.50;;
85603;SDS011;76031;53.256;5.762;2024-03-07T05:18:42;38.78;;;17.50;;
85603;SDS011;76031;53.256;5.762;2024-03-07T05:21:08;36.63;;;18.13;;
85603;SDS011;76031;53.256;5.762;2024-03-07T05:23:54;36.33;;;16.27;;
85603;SDS011;76031;53.256;5.762;2024-03-07T05:26:19;37.83;;;17.13;;
85603;SDS011;76031;53.256;5.762;2024-03-07T05:28:44;37.42;;;16.95;;
85603;SDS011;76031;53.256;5.762;2024-03-07T05:31:10;35.60;;;16.60;;
85603;SDS011;76031;53.256;5.762;2024-03-07T05:33:37;36.22;;;17.25;;
85603;SDS011;76031;53.256;5.762;2024-03-07T05:36:03;32.95;;;15.13;;
85603;SDS011;76031;53.256;5.762;2024-03-07T05:38:40;36.50;;;18.85;;
85603;SDS011;76031;53.256;5.762;2024-03-07T05:41:05;33.78;;;16.95;;
85603;SDS011;76031;53.256;5.762;2024-03-07T05:43:30;32.20;;;17.17;;
85603;SDS011;76031;53.256;5.762;2024-03-07T05:46:00;33.25;;;17.30;;
85603;SDS011;76031;53.256;5.762;2024-03-07T05:48:25;33.88;;;16.23;;
85603;SDS011;76031;53.256;5.762;2024-03-07T05:50:51;39.60;;;17.00;;
85603;SDS011;76031;53.256;5.762;2024-03-07T05:53:16;35.63;;;16.00;;
85603;SDS011;76031;53.256;5.762;2024-03-07T05:58:08;37.43;;;17.30;;
85603;SDS011;76031;53.256;5.762;2024-03-07T06:00:33;30.63;;;15.20;;
85603;SDS011;76031;53.256;5.762;2024-03-07T06:03:00;33.83;;;18.08;;
85603;SDS011;76031;53.256;5.762;2024-03-07T06:05:25;33.07;;;18.60;;
85603;SDS011;76031;53.256;5.762;2024-03-07T06:07:50;30.88;;;16.30;;
85603;SDS011;76031;53.256;5.762;2024-03-07T06:10:16;33.60;;;16.70;;
85603;SDS011;76031;53.256;5.762;2024-03-07T06:12:41;32.25;;;15.38;;
85603;SDS011;76031;53.256;5.762;2024-03-07T06:15:11;31.35;;;16.05;;
85603;SDS011;76031;53.256;5.762;2024-03-07T06:17:36;29.25;;;14.38;;
85603;SDS011;76031;53.256;5.762;2024-03-07T06:20:01;33.22;;;15.88;;
85603;SDS011;76031;53.256;5.762;2024-03-07T06:22:30;33.25;;;16.48;;
85603;SDS011;76031;53.256;5.762;2024-03-07T06:24:55;33.97;;;16.85;;
85603;SDS011;76031;53.256;5.762;2024-03-07T06:27:21;36.87;;;16.60;;
85603;SDS011;76031;53.256;5.762;2024-03-07T06:30:02;33.45;;;16.48;;
85603;SDS011;76031;53.256;5.762;2024-03-07T06:32:28;33.50;;;14.65;;
85603;SDS011;76031;53.256;5.762;2024-03-07T06:34:53;36.80;;;18.23;;
85603;SDS011;76031;53.256;5.762;2024-03-07T06:37:18;34.10;;;17.37;;
85603;SDS011;76031;53.256;5.762;2024-03-07T06:39:44;33.67;;;17.23;;
85603;SDS011;76031;53.256;5.762;2024-03-07T06:42:11;36.00;;;16.45;;
85603;SDS011;76031;53.256;5.762;2024-03-07T06:44:37;34.08;;;16.95;;
85603;SDS011;76031;53.256;5.762;2024-03-07T06:47:02;37.17;;;18.52;;
85603;SDS011;76031;53.256;5.762;2024-03-07T06:49:27;36.43;;;17.40;;
85603;SDS011;76031;53.256;5.762;2024-03-07T06:51:53;37.38;;;18.40;;
85603;SDS011;76031;53.256;5.762;2024-03-07T06:54:19;40.22;;;18.63;;
85603;SDS011;76031;53.256;5.762;2024-03-07T06:56:46;35.47;;;17.50;;
85603;SDS011;76031;53.256;5.762;2024-03-07T06:59:11;38.93;;;17.23;;
85603;SDS011;76031;53.256;5.762;2024-03-07T07:01:39;38.35;;;18.42;;
85603;SDS011;76031;53.256;5.762;2024-03-07T07:04:08;40.63;;;20.85;;
85603;SDS011;76031;53.256;5.762;2024-03-07T07:06:33;38.13;;;20.70;;
85603;SDS011;76031;53.256;5.762;2024-03-07T07:08:59;37.77;;;17.27;;
85603;SDS011;76031;53.256;5.762;2024-03-07T07:11:30;39.20;;;20.02;;
85603;SDS011;76031;53.256;5.762;2024-03-07T07:13:55;43.57;;;20.10;;
85603;SDS011;76031;53.256;5.762;2024-03-07T07:16:20;41.08;;;18.20;;
85603;SDS011;76031;53.256;5.762;2024-03-07T07:18:46;38.05;;;18.17;;
85603;SDS011;76031;53.256;5.762;2024-03-07T07:21:12;39.73;;;19.17;;
85603;SDS011;76031;53.256;5.762;2024-03-07T07:23:40;42.30;;;18.33;;
85603;SDS011;76031;53.256;5.762;2024-03-07T07:26:06;44.92;;;21.67;;
85603;SDS011;76031;53.256;5.762;2024-03-07T07:28:31;46.40;;;22.98;;
85603;SDS011;76031;53.256;5.762;2024-03-07T07:33:23;42.73;;;20.67;;
85603;SDS011;76031;53.256;5.762;2024-03-07T07:35:48;45.60;;;22.30;;
85603;SDS011;76031;53.256;5.762;2024-03-07T07:38:14;47.23;;;21.80;;
85603;SDS011;76031;53.256;5.762;2024-03-07T07:40:40;42.83;;;23.52;;
85603;SDS011;76031;53.256;5.762;2024-03-07T07:43:06;47.60;;;24.65;;
85603;SDS011;76031;53.256;5.762;2024-03-07T07:45:32;49.63;;;23.23;;
85603;SDS011;76031;53.256;5.762;2024-03-07T07:48:00;49.28;;;22.75;;
85603;SDS011;76031;53.256;5.762;2024-03-07T07:50:26;49.53;;;23.27;;
85603;SDS011;76031;53.256;5.762;2024-03-07T07:55:20;48.75;;;22.20;;
85603;SDS011;76031;53.256;5.762;2024-03-07T07:57:46;48.30;;;22.23;;
85603;SDS011;76031;53.256;5.762;2024-03-07T08:00:15;47.10;;;22.50;;
85603;SDS011;76031;53.256;5.762;2024-03-07T08:02:54;47.70;;;22.98;;
85603;SDS011;76031;53.256;5.762;2024-03-07T08:07:47;45.92;;;23.13;;
85603;SDS011;76031;53.256;5.762;2024-03-07T08:10:13;52.20;;;21.47;;
85603;SDS011;76031;53.256;5.762;2024-03-07T08:12:39;45.90;;;22.63;;
85603;SDS011;76031;53.256;5.762;2024-03-07T08:15:06;50.22;;;22.08;;
85603;SDS011;76031;53.256;5.762;2024-03-07T08:17:31;49.33;;;23.73;;
85603;SDS011;76031;53.256;5.762;2024-03-07T08:19:57;45.80;;;20.50;;
85603;SDS011;76031;53.256;5.762;2024-03-07T08:22:25;49.75;;;21.92;;
85603;SDS011;76031;53.256;5.762;2024-03-07T08:24:51;47.28;;;23.90;;
85603;SDS011;76031;53.256;5.762;2024-03-07T08:27:17;50.67;;;25.65;;
85603;SDS011;76031;53.256;5.762;2024-03-07T08:29:43;46.92;;;22.23;;
85603;SDS011;76031;53.256;5.762;2024-03-07T08:32:08;46.30;;;22.77;;
85603;SDS011;76031;53.256;5.762;2024-03-07T08:34:33;44.22;;;21.83;;
85603;SDS011;76031;53.256;5.762;2024-03-07T08:36:59;47.33;;;21.80;;
85603;SDS011;76031;53.256;5.762;2024-03-07T08:39:24;38.20;;;19.30;;
85603;SDS011;76031;53.256;5.762;2024-03-07T08:41:49;45.80;;;21.40;;
85603;SDS011;76031;53.256;5.762;2024-03-07T08:44:15;39.33;;;17.33;;
85603;SDS011;76031;53.256;5.762;2024-03-07T08:46:40;34.30;;;17.70;;
85603;SDS011;76031;53.256;5.762;2024-03-07T08:49:06;37.40;;;17.90;;
85603;SDS011;76031;53.256;5.762;2024-03-07T08:51:32;31.90;;;14.88;;
85603;SDS011;76031;53.256;5.762;2024-03-07T08:53:57;37.23;;;18.37;;
85603;SDS011;76031;53.256;5.762;2024-03-07T08:56:22;32.27;;;17.60;;
85603;SDS011;76031;53.256;5.762;2024-03-07T08:58:51;33.90;;;17.38;;
85603;SDS011;76031;53.256;5.762;2024-03-07T09:01:16;40.35;;;17.90;;
85603;SDS011;76031;53.256;5.762;2024-03-07T09:03:43;40.00;;;20.00;;
85603;SDS011;76031;53.256;5.762;2024-03-07T09:06:08;39.47;;;18.73;;
85603;SDS011;76031;53.256;5.762;2024-03-07T09:08:38;40.17;;;20.77;;
85603;SDS011;76031;53.256;5.762;2024-03-07T09:11:04;40.88;;;19.52;;
85603;SDS011;76031;53.256;5.762;2024-03-07T09:13:29;34.33;;;17.55;;
85603;SDS011;76031;53.256;5.762;2024-03-07T09:15:54;35.13;;;17.33;;
85603;SDS011;76031;53.256;5.762;2024-03-07T09:18:20;42.23;;;21.47;;
85603;SDS011;76031;53.256;5.762;2024-03-07T09:20:45;36.13;;;17.80;;
85603;SDS011;76031;53.256;5.762;2024-03-07T09:23:10;42.73;;;18.77;;
85603;SDS011;76031;53.256;5.762;2024-03-07T09:25:36;38.28;;;19.75;;
85603;SDS011;76031;53.256;5.762;2024-03-07T09:28:02;40.55;;;20.98;;
85603;SDS011;76031;53.256;5.762;2024-03-07T09:30:27;41.20;;;20.98;;
85603;SDS011;76031;53.256;5.762;2024-03-07T09:32:56;40.33;;;20.80;;
85603;SDS011;76031;53.256;5.762;2024-03-07T09:35:21;50.35;;;22.52;;
85603;SDS011;76031;53.256;5.762;2024-03-07T09:37:47;51.08;;;22.50;;
85603;SDS011;76031;53.256;5.762;2024-03-07T09:40:13;59.85;;;26.80;;
85603;SDS011;76031;53.256;5.762;2024-03-07T09:42:45;76.53;;;29.23;;
85603;SDS011;76031;53.256;5.762;2024-03-07T09:45:14;75.88;;;27.30;;
85603;SDS011;76031;53.256;5.762;2024-03-07T09:47:41;84.13;;;30.25;;
85603;SDS011;76031;53.256;5.762;2024-03-07T09:50:07;85.78;;;31.92;;
85603;SDS011;76031;53.256;5.762;2024-03-07T09:52:33;78.05;;;27.65;;
85603;SDS011;76031;53.256;5.762;2024-03-07T09:55:00;70.85;;;28.98;;
85603;SDS011;76031;53.256;5.762;2024-03-07T09:57:25;48.15;;;22.25;;
85603;SDS011;76031;53.256;5.762;2024-03-07T09:59:52;50.03;;;21.40;;
85603;SDS011;76031;53.256;5.762;2024-03-07T10:02:19;41.60;;;19.75;;
85603;SDS011;76031;53.256;5.762;2024-03-07T10:04:49;37.05;;;20.08;;
85603;SDS011;76031;53.256;5.762;2024-03-07T10:07:16;33.47;;;16.85;;
85603;SDS011;76031;53.256;5.762;2024-03-07T10:09:41;33.28;;;17.33;;
85603;SDS011;76031;53.256;5.762;2024-03-07T10:12:07;33.33;;;16.75;;
85603;SDS011;76031;53.256;5.762;2024-03-07T10:15:02;32.38;;;15.73;;
85603;SDS011;76031;53.256;5.762;2024-03-07T10:17:24;35.55;;;17.65;;
85603;SDS011;76031;53.256;5.762;2024-03-07T10:19:51;35.05;;;17.27;;
85603;SDS011;76031;53.256;5.762;2024-03-07T10:22:18;35.25;;;17.67;;
85603;SDS011;76031;53.256;5.762;2024-03-07T10:24:53;34.17;;;17.63;;
85603;SDS011;76031;53.256;5.762;2024-03-07T10:27:19;39.78;;;17.50;;
85603;SDS011;76031;53.256;5.762;2024-03-07T10:29:49;37.80;;;20.48;;
85603;SDS011;76031;53.256;5.762;2024-03-07T10:32:19;39.38;;;19.52;;
85603;SDS011;76031;53.256;5.762;2024-03-07T10:34:45;38.33;;;18.30;;
85603;SDS011;76031;53.256;5.762;2024-03-07T10:37:12;40.55;;;17.30;;
85603;SDS011;76031;53.256;5.762;2024-03-07T10:39:41;41.45;;;19.30;;
85603;SDS011;76031;53.256;5.762;2024-03-07T10:42:07;46.75;;;20.08;;
85603;SDS011;76031;53.256;5.762;2024-03-07T10:44:36;45.42;;;20.58;;
85603;SDS011;76031;53.256;5.762;2024-03-07T10:47:06;50.10;;;21.38;;
85603;SDS011;76031;53.256;5.762;2024-03-07T10:49:33;43.30;;;18.88;;
85603;SDS011;76031;53.256;5.762;2024-03-07T10:52:02;44.60;;;20.92;;
85603;SDS011;76031;53.256;5.762;2024-03-07T10:54:36;46.45;;;20.58;;
85603;SDS011;76031;53.256;5.762;2024-03-07T10:59:50;37.10;;;19.08;;
85603;SDS011;76031;53.256;5.762;2024-03-07T11:02:24;38.25;;;18.95;;
85603;SDS011;76031;53.256;5.762;2024-03-07T11:04:54;35.53;;;18.40;;
85603;SDS011;76031;53.256;5.762;2024-03-07T11:07:20;38.75;;;17.50;;
85603;SDS011;76031;53.256;5.762;2024-03-07T11:09:48;35.60;;;15.85;;
85603;SDS011;76031;53.256;5.762;2024-03-07T11:12:14;39.45;;;15.25;;
85603;SDS011;76031;53.256;5.762;2024-03-07T11:14:40;36.90;;;16.17;;
85603;SDS011;76031;53.256;5.762;2024-03-07T11:17:07;35.70;;;17.70;;
85603;SDS011;76031;53.256;5.762;2024-03-07T11:22:02;35.58;;;16.45;;
85603;SDS011;76031;53.256;5.762;2024-03-07T11:24:30;37.00;;;14.52;;
85603;SDS011;76031;53.256;5.762;2024-03-07T11:26:59;29.75;;;15.80;;
85603;SDS011;76031;53.256;5.762;2024-03-07T11:32:15;25.85;;;11.48;;
85603;SDS011;76031;53.256;5.762;2024-03-07T11:34:44;32.88;;;12.63;;
85603;SDS011;76031;53.256;5.762;2024-03-07T11:37:47;27.08;;;13.32;;
85603;SDS011;76031;53.256;5.762;2024-03-07T11:42:46;24.38;;;12.63;;
85603;SDS011;76031;53.256;5.762;2024-03-07T11:45:13;29.67;;;13.77;;
85603;SDS011;76031;53.256;5.762;2024-03-07T11:47:50;27.02;;;13.05;;
85603;SDS011;76031;53.256;5.762;2024-03-07T11:50:15;29.25;;;15.15;;
85603;SDS011;76031;53.256;5.762;2024-03-07T11:52:45;28.17;;;11.98;;
85603;SDS011;76031;53.256;5.762;2024-03-07T11:57:37;29.58;;;11.70;;
85603;SDS011;76031;53.256;5.762;2024-03-07T12:00:03;28.63;;;12.98;;
85603;SDS011;76031;53.256;5.762;2024-03-07T12:02:37;27.42;;;13.98;;
85603;SDS011;76031;53.256;5.762;2024-03-07T12:05:03;22.85;;;11.43;;
85603;SDS011;76031;53.256;5.762;2024-03-07T12:07:30;26.05;;;13.30;;
85603;SDS011;76031;53.256;5.762;2024-03-07T12:09:56;26.42;;;13.38;;
85603;SDS011;76031;53.256;5.762;2024-03-07T12:12:21;27.27;;;14.10;;
85603;SDS011;76031;53.256;5.762;2024-03-07T12:14:50;24.83;;;12.98;;
85603;SDS011;76031;53.256;5.762;2024-03-07T12:17:19;24.17;;;12.52;;
85603;SDS011;76031;53.256;5.762;2024-03-07T12:19:44;22.67;;;12.32;;
85603;SDS011;76031;53.256;5.762;2024-03-07T12:22:12;25.58;;;14.07;;
85603;SDS011;76031;53.256;5.762;2024-03-07T12:24:41;29.00;;;15.68;;
85603;SDS011;76031;53.256;5.762;2024-03-07T12:27:10;26.45;;;14.00;;
85603;SDS011;76031;53.256;5.762;2024-03-07T12:29:36;25.25;;;14.02;;
85603;SDS011;76031;53.256;5.762;2024-03-07T12:32:04;23.85;;;12.90;;
85603;SDS011;76031;53.256;5.762;2024-03-07T12:34:31;24.52;;;13.18;;
85603;SDS011;76031;53.256;5.762;2024-03-07T12:37:01;26.85;;;13.38;;
85603;SDS011;76031;53.256;5.762;2024-03-07T12:39:26;24.55;;;13.25;;
85603;SDS011;76031;53.256;5.762;2024-03-07T12:41:57;27.80;;;14.13;;
85603;SDS011;76031;53.256;5.762;2024-03-07T12:44:22;26.15;;;12.45;;
85603;SDS011;76031;53.256;5.762;2024-03-07T12:46:48;29.33;;;14.32;;
85603;SDS011;76031;53.256;5.762;2024-03-07T12:49:18;22.38;;;12.82;;
85603;SDS011;76031;53.256;5.762;2024-03-07T12:51:44;28.27;;;14.20;;
85603;SDS011;76031;53.256;5.762;2024-03-07T12:54:09;27.30;;;13.18;;
85603;SDS011;76031;53.256;5.762;2024-03-07T12:56:35;30.80;;;15.73;;
85603;SDS011;76031;53.256;5.762;2024-03-07T12:59:03;31.35;;;16.02;;
85603;SDS011;76031;53.256;5.762;2024-03-07T13:01:28;27.15;;;13.57;;
85603;SDS011;76031;53.256;5.762;2024-03-07T13:03:53;27.52;;;14.57;;
85603;SDS011;76031;53.256;5.762;2024-03-07T13:06:18;24.83;;;13.27;;
85603;SDS011;76031;53.256;5.762;2024-03-07T13:08:58;28.73;;;13.63;;
85603;SDS011;76031;53.256;5.762;2024-03-07T13:11:23;26.30;;;11.98;;
85603;SDS011;76031;53.256;5.762;2024-03-07T13:13:48;25.80;;;13.93;;
85603;SDS011;76031;53.256;5.762;2024-03-07T13:16:14;21.95;;;11.70;;
85603;SDS011;76031;53.256;5.762;2024-03-07T13:18:40;28.00;;;15.18;;
85603;SDS011;76031;53.256;5.762;2024-03-07T13:21:05;25.65;;;13.25;;
85603;SDS011;76031;53.256;5.762;2024-03-07T13:23:31;24.27;;;13.00;;
85603;SDS011;76031;53.256;5.762;2024-03-07T13:25:58;24.48;;;12.57;;
85603;SDS011;76031;53.256;5.762;2024-03-07T13:28:23;27.70;;;13.45;;
85603;SDS011;76031;53.256;5.762;2024-03-07T13:30:50;24.85;;;13.20;;
85603;SDS011;76031;53.256;5.762;2024-03-07T13:33:19;22.60;;;11.73;;
85603;SDS011;76031;53.256;5.762;2024-03-07T13:35:45;23.83;;;12.20;;
85603;SDS011;76031;53.256;5.762;2024-03-07T13:38:10;27.30;;;14.02;;
85603;SDS011;76031;53.256;5.762;2024-03-07T13:40:36;25.95;;;13.13;;
85603;SDS011;76031;53.256;5.762;2024-03-07T13:43:04;22.92;;;11.68;;
85603;SDS011;76031;53.256;5.762;2024-03-07T13:45:30;32.92;;;17.55;;
85603;SDS011;76031;53.256;5.762;2024-03-07T13:47:57;31.95;;;12.73;;
85603;SDS011;76031;53.256;5.762;2024-03-07T13:50:24;29.83;;;15.57;;
85603;SDS011;76031;53.256;5.762;2024-03-07T13:52:50;22.77;;;11.98;;
85603;SDS011;76031;53.256;5.762;2024-03-07T14:06:11;26.13;;;14.30;;
85603;SDS011;76031;53.256;5.762;2024-03-07T14:16:21;24.77;;;12.80;;
85603;SDS011;76031;53.256;5.762;2024-03-07T14:29:54;23.85;;;11.45;;
85603;SDS011;76031;53.256;5.762;2024-03-07T14:32:23;22.40;;;11.48;;
85603;SDS011;76031;53.256;5.762;2024-03-07T14:37:37;25.10;;;13.35;;
85603;SDS011;76031;53.256;5.762;2024-03-07T14:40:08;21.80;;;12.18;;
85603;SDS011;76031;53.256;5.762;2024-03-07T14:42:36;22.42;;;12.13;;
85603;SDS011;76031;53.256;5.762;2024-03-07T14:45:01;22.52;;;12.50;;
85603;SDS011;76031;53.256;5.762;2024-03-07T14:47:32;24.33;;;12.57;;
85603;SDS011;76031;53.256;5.762;2024-03-07T14:49:58;25.48;;;13.65;;
85603;SDS011;76031;53.256;5.762;2024-03-07T14:52:23;22.20;;;11.43;;
85603;SDS011;76031;53.256;5.762;2024-03-07T14:54:48;26.63;;;12.43;;
85603;SDS011;76031;53.256;5.762;2024-03-07T14:57:14;25.10;;;12.63;;
85603;SDS011;76031;53.256;5.762;2024-03-07T14:59:40;25.92;;;12.80;;
85603;SDS011;76031;53.256;5.762;2024-03-07T15:02:05;25.10;;;12.13;;
85603;SDS011;76031;53.256;5.762;2024-03-07T15:04:36;21.27;;;12.27;;
85603;SDS011;76031;53.256;5.762;2024-03-07T15:07:01;23.60;;;12.73;;
85603;SDS011;76031;53.256;5.762;2024-03-07T15:09:28;25.55;;;13.30;;
85603;SDS011;76031;53.256;5.762;2024-03-07T15:11:55;22.33;;;12.68;;
85603;SDS011;76031;53.256;5.762;2024-03-07T15:14:20;23.85;;;12.80;;